Radiosonde details



Informationen :

Serial : D25038538
Type : Graw DFM
Frequency : 403.170MHz
Launchsite : -
Nearest town : Union, US (12.1km)

Altitude (Max) : 18138m at 2026-09-02 15:44:12
Speed (Max) : 100km/h at altitude 8735m

Average speed : 54km/h
Average ascent rate : 6m/s
Average descent rate : -12m/s
Ascent rate (Max) : 12.5m/s
Descent rate (Max): -20.5m/s

First frame :
KE7DJD at 2026-09-02 15:18:27 at altitude 8030m (OG: 7988m)
Last frame :
KE7DJD at 2026-09-02 16:05:10 at altitude 3435m (OG: 3393m)

Flighttime : 46m43s
Ascent time : 25m45s
Descent time : 20m58s
Uptime : -
Killtimer : -

Distance (Straight line distance): 37km

Distance (Route):


Frames : 131


Measurement :

Temperature : 7.2°C
Humidity : 0%
Pressure : 0hPa


Vertical profile (SkewT) :


Elevation profile :



Receiving stations :


Receiver Frames First received Last received
KE7DJD 131 2026-09-02 15:18:27 2026-09-02 16:05:10

Share per receiver :



All frames :


Receiver Date Latitude Longitude Direction Speed Altitude Climb Temperature Humidity Pressure Voltage Killtimer Uptime BKT XDATA
KE7DJD2026-09-02 16:05:1045.13512-117.9794537km/h3435m-7.9m/s7.2°C0%0hPa0V00:00:0000:00:0000:00:00
KE7DJD2026-09-02 16:04:4945.13319-117.9798014°40km/h3593m-8.8m/s5.7°C0%0hPa0V00:00:0000:00:0000:00:00
KE7DJD2026-09-02 16:04:2845.13119-117.9803212°38km/h3759m-9.2m/s4.1°C0%0hPa0V00:00:0000:00:0000:00:00
KE7DJD2026-09-02 16:04:0845.12915-117.9810719°46km/h3929m-8.2m/s2.9°C0%0hPa0V00:00:0000:00:0000:00:00
KE7DJD2026-09-02 16:03:4845.12693-117.9820825°42km/h4107m-9.0m/s2.2°C0%0hPa0V00:00:0000:00:0000:00:00
KE7DJD2026-09-02 16:03:2645.12475-117.9834522°46km/h4278m-8.0m/s0.6°C0%0hPa0V00:00:0000:00:0000:00:00
KE7DJD2026-09-02 16:03:0545.12253-117.9846020°44km/h4449m-8.1m/s-1.0°C0%0hPa0V00:00:0000:00:0000:00:00
KE7DJD2026-09-02 16:02:4545.12027-117.9858325°47km/h4623m-8.3m/s-2.1°C0%0hPa0V00:00:0000:00:0000:00:00
KE7DJD2026-09-02 16:02:2445.11784-117.9875226°51km/h4797m-8.4m/s-3.2°C0%0hPa0V00:00:0000:00:0000:00:00
KE7DJD2026-09-02 16:02:0345.11553-117.9889727°47km/h4965m-8.3m/s-4.6°C0%0hPa0V00:00:0000:00:0000:00:00
KE7DJD2026-09-02 16:01:4345.11330-117.9906129°46km/h5140m-8.1m/s-5.2°C0%0hPa0V00:00:0000:00:0000:00:00
KE7DJD2026-09-02 16:01:2245.11138-117.9921428°40km/h5308m-8.3m/s-5.9°C0%0hPa0V00:00:0000:00:0000:00:00
KE7DJD2026-09-02 16:00:4145.10745-117.9947326°47km/h5669m-9.1m/s-8.6°C0%0hPa0V00:00:0000:00:0000:00:00
KE7DJD2026-09-02 16:00:2145.10495-117.9962119°53km/h5856m-8.6m/s-10.0°C0%0hPa0V00:00:0000:00:0000:00:00
KE7DJD2026-09-02 15:59:5945.10208-117.9972614°57km/h6043m-9.0m/s-11.5°C0%0hPa0V00:00:0000:00:0000:00:00
KE7DJD2026-09-02 15:59:3845.09904-117.9981511°62km/h6234m-9.0m/s-13.1°C0%0hPa0V00:00:0000:00:0000:00:00
KE7DJD2026-09-02 15:59:1845.09569-117.9987366km/h6425m-9.1m/s-14.9°C0%0hPa0V00:00:0000:00:0000:00:00
KE7DJD2026-09-02 15:58:5745.09219-117.9991368km/h6617m-9.2m/s-16.5°C0%0hPa0V00:00:0000:00:0000:00:00
KE7DJD2026-09-02 15:58:3645.08864-117.99872353°73km/h6802m-9.4m/s-17.8°C0%0hPa0V00:00:0000:00:0000:00:00
KE7DJD2026-09-02 15:58:1645.08484-117.99747343°73km/h7001m-9.8m/s-19.1°C0%0hPa0V00:00:0000:00:0000:00:00
KE7DJD2026-09-02 15:57:5545.08127-117.99557337°68km/h7200m-9.2m/s-20.9°C0%0hPa0V00:00:0000:00:0000:00:00
KE7DJD2026-09-02 15:57:3445.07814-117.99338331°66km/h7396m-9.3m/s-22.7°C0%0hPa0V00:00:0000:00:0000:00:00
KE7DJD2026-09-02 15:57:1345.07502-117.99103335°69km/h7586m-9.6m/s-23.8°C0%0hPa0V00:00:0000:00:0000:00:00
KE7DJD2026-09-02 15:56:5345.07178-117.98867332°73km/h7779m-9.2m/s-25.3°C0%0hPa0V00:00:0000:00:0000:00:00
KE7DJD2026-09-02 15:56:3345.06838-117.98583330°73km/h7976m-9.6m/s-26.8°C0%0hPa0V00:00:0000:00:0000:00:00
KE7DJD2026-09-02 15:56:1245.06520-117.98298327°75km/h8167m-9.4m/s-28.5°C0%0hPa0V00:00:0000:00:0000:00:00
KE7DJD2026-09-02 15:55:5245.06199-117.97968328°78km/h8379m-10.1m/s-30.3°C0%0hPa0V00:00:0000:00:0000:00:00
KE7DJD2026-09-02 15:55:3145.05842-117.97669333°80km/h8593m-11.1m/s-31.2°C0%0hPa0V00:00:0000:00:0000:00:00
KE7DJD2026-09-02 15:55:1145.05503-117.97480339°69km/h8818m-9.8m/s-32.4°C0%0hPa0V00:00:0000:00:0000:00:00
KE7DJD2026-09-02 15:54:5045.05212-117.97317339°51km/h9002m-10.8m/s-34.2°C0%0hPa0V00:00:0000:00:0000:00:00
KE7DJD2026-09-02 15:54:3045.04967-117.97174340°49km/h9211m-10.8m/s-36.3°C0%0hPa0V00:00:0000:00:0000:00:00
KE7DJD2026-09-02 15:54:0945.04701-117.9713057km/h9423m-11.2m/s-38.3°C0%0hPa0V00:00:0000:00:0000:00:00
KE7DJD2026-09-02 15:53:4945.04456-117.9719919°42km/h9657m-10.4m/s-39.8°C0%0hPa0V00:00:0000:00:0000:00:00
KE7DJD2026-09-02 15:53:2845.04285-117.9731344°33km/h9872m-10.9m/s-40.3°C0%0hPa0V00:00:0000:00:0000:00:00
KE7DJD2026-09-02 15:53:0845.04167-117.9749938°31km/h10107m-11.2m/s-41.6°C0%0hPa0V00:00:0000:00:0000:00:00
KE7DJD2026-09-02 15:52:4645.04069-117.9763964°27km/h10347m-11.9m/s-42.8°C0%0hPa0V00:00:0000:00:0000:00:00
KE7DJD2026-09-02 15:52:2645.04020-117.9779458°18km/h10589m-11.9m/s-43.4°C0%0hPa0V00:00:0000:00:0000:00:00
KE7DJD2026-09-02 15:52:0645.03932-117.9792551°31km/h10851m-12.5m/s-44.2°C0%0hPa0V00:00:0000:00:0000:00:00
KE7DJD2026-09-02 15:51:4545.03811-117.9807936°38km/h11108m-13.0m/s-43.8°C0%0hPa0V00:00:0000:00:0000:00:00
KE7DJD2026-09-02 15:51:2445.03630-117.9824738°42km/h11379m-12.5m/s-42.8°C0%0hPa0V00:00:0000:00:0000:00:00
KE7DJD2026-09-02 15:51:0445.03478-117.9849958°47km/h11640m-13.1m/s-43.0°C0%0hPa0V00:00:0000:00:0000:00:00
KE7DJD2026-09-02 15:50:4445.03330-117.9875646°47km/h11921m-13.1m/s-42.3°C0%0hPa0V00:00:0000:00:0000:00:00
KE7DJD2026-09-02 15:50:2345.03092-117.9903044°60km/h12211m-13.9m/s-43.0°C0%0hPa0V00:00:0000:00:0000:00:00
KE7DJD2026-09-02 15:50:0345.02916-117.9935656°57km/h12500m-14.0m/s-42.3°C0%0hPa0V00:00:0000:00:0000:00:00
KE7DJD2026-09-02 15:49:4245.02739-117.9967549°49km/h12764m-12.9m/s-42.3°C0%0hPa0V00:00:0000:00:0000:00:00
KE7DJD2026-09-02 15:49:2245.02544-117.9997849°53km/h13038m-12.9m/s-42.5°C0%0hPa0V00:00:0000:00:0000:00:00
KE7DJD2026-09-02 15:49:0145.02370-118.0023639°47km/h13298m-12.3m/s-42.6°C0%0hPa0V00:00:0000:00:0000:00:00
KE7DJD2026-09-02 15:48:4145.02187-118.0047143°53km/h13566m-13.5m/s-42.2°C0%0hPa0V00:00:0000:00:0000:00:00
KE7DJD2026-09-02 15:48:2045.01964-118.0072135°58km/h13842m-12.4m/s-42.9°C0%0hPa0V00:00:0000:00:0000:00:00
KE7DJD2026-09-02 15:48:0045.01683-118.0102442°68km/h14127m-15.5m/s-44.5°C0%0hPa0V00:00:0000:00:0000:00:00
KE7DJD2026-09-02 15:47:3845.01434-118.0134849°68km/h14455m-18.6m/s-43.3°C0%0hPa0V00:00:0000:00:0000:00:00
KE7DJD2026-09-02 15:47:1745.01207-118.0168835°58km/h14862m-20.5m/s-43.1°C0%0hPa0V00:00:0000:00:0000:00:00
KE7DJD2026-09-02 15:46:5745.01003-118.0197656°49km/h15276m-18.7m/s-44.0°C0%0hPa0V00:00:0000:00:0000:00:00
KE7DJD2026-09-02 15:46:3645.00781-118.0223433°60km/h15642m-17.4m/s-43.3°C0%0hPa0V00:00:0000:00:0000:00:00
KE7DJD2026-09-02 15:45:5445.00318-118.0273630°44km/h16383m-15.7m/s-42.8°C0%0hPa0V00:00:0000:00:0000:00:00
KE7DJD2026-09-02 15:45:3345.00073-118.0291237°60km/h16738m-17.1m/s-43.2°C0%0hPa0V00:00:0000:00:0000:00:00
KE7DJD2026-09-02 15:45:1344.99839-118.0311933°40km/h17118m-19.9m/s-43.8°C0%0hPa0V00:00:0000:00:0000:00:00
KE7DJD2026-09-02 15:44:5344.99675-118.0324739°47km/h17456m-19.4m/s-43.7°C0%0hPa0V00:00:0000:00:0000:00:00
KE7DJD2026-09-02 15:44:3244.99499-118.0345831°51km/h17789m-17.4m/s-44.0°C0%0hPa0V00:00:0000:00:0000:00:00
KE7DJD2026-09-02 15:44:1244.99211-118.0365443°38km/h18138m0.3m/s-45.8°C0%0hPa0V00:00:0000:00:0000:00:00
KE7DJD2026-09-02 15:43:5144.98957-118.0382218°53km/h18004m7.0m/s-45.2°C0%0hPa0V00:00:0000:00:0000:00:00
KE7DJD2026-09-02 15:43:1044.98415-118.0423341°46km/h17711m7.7m/s-43.7°C0%0hPa0V00:00:0000:00:0000:00:00
KE7DJD2026-09-02 15:42:5044.98245-118.0446649°46km/h17577m6.2m/s-43.1°C0%0hPa0V00:00:0000:00:0000:00:00
KE7DJD2026-09-02 15:42:2944.98066-118.0470338°49km/h17453m7.2m/s-43.2°C0%0hPa0V00:00:0000:00:0000:00:00
KE7DJD2026-09-02 15:42:0944.97857-118.0490338°33km/h17318m7.7m/s-43.3°C0%0hPa0V00:00:0000:00:0000:00:00
KE7DJD2026-09-02 15:41:4844.97689-118.0502926°38km/h17194m5.3m/s-43.4°C0%0hPa0V00:00:0000:00:0000:00:00
KE7DJD2026-09-02 15:41:2844.97480-118.0521933°47km/h17060m4.3m/s-43.6°C0%0hPa0V00:00:0000:00:0000:00:00
KE7DJD2026-09-02 15:41:0744.97248-118.0541420°58km/h16935m7.2m/s-42.8°C0%0hPa0V00:00:0000:00:0000:00:00
KE7DJD2026-09-02 15:40:2544.96703-118.0591541°58km/h16691m5.8m/s-42.8°C0%0hPa0V00:00:0000:00:0000:00:00
KE7DJD2026-09-02 15:40:0544.96458-118.0611634°55km/h16576m5.6m/s-42.5°C0%0hPa0V00:00:0000:00:0000:00:00
KE7DJD2026-09-02 15:39:4444.96224-118.0626925°51km/h16458m5.6m/s-42.6°C0%0hPa0V00:00:0000:00:0000:00:00
KE7DJD2026-09-02 15:39:2444.96045-118.0643243°57km/h16340m3.5m/s-42.8°C0%0hPa0V00:00:0000:00:0000:00:00
KE7DJD2026-09-02 15:39:0444.95880-118.0669952°53km/h16220m7.6m/s-42.8°C0%0hPa0V00:00:0000:00:0000:00:00
KE7DJD2026-09-02 15:38:4244.95675-118.0700449°62km/h16100m7.0m/s-42.4°C0%0hPa0V00:00:0000:00:0000:00:00
KE7DJD2026-09-02 15:38:2144.95438-118.0732248°60km/h15990m4.7m/s-42.6°C0%0hPa0V00:00:0000:00:0000:00:00
KE7DJD2026-09-02 15:38:0144.95225-118.0756833°53km/h15876m4.2m/s-42.6°C0%0hPa0V00:00:0000:00:0000:00:00
KE7DJD2026-09-02 15:37:3944.94985-118.0782546°49km/h15758m5.6m/s-42.9°C0%0hPa0V00:00:0000:00:0000:00:00
KE7DJD2026-09-02 15:37:1944.94755-118.0802932°55km/h15655m6.2m/s-43.4°C0%0hPa0V00:00:0000:00:0000:00:00
KE7DJD2026-09-02 15:36:5944.94513-118.0826035°53km/h15537m4.3m/s-44.1°C0%0hPa0V00:00:0000:00:0000:00:00
KE7DJD2026-09-02 15:36:3844.94330-118.0849949°42km/h15426m4.7m/s-44.0°C0%0hPa0V00:00:0000:00:0000:00:00
KE7DJD2026-09-02 15:36:1844.94202-118.0878262°38km/h15295m7.4m/s-44.1°C0%0hPa0V00:00:0000:00:0000:00:00
KE7DJD2026-09-02 15:35:5744.94056-118.0909856°62km/h15177m5.3m/s-43.7°C0%0hPa0V00:00:0000:00:0000:00:00
KE7DJD2026-09-02 15:35:3744.93884-118.0942350°47km/h15053m8.3m/s-43.0°C0%0hPa0V00:00:0000:00:0000:00:00
KE7DJD2026-09-02 15:35:1644.93688-118.0969839°53km/h14925m7.8m/s-42.3°C0%0hPa0V00:00:0000:00:0000:00:00
KE7DJD2026-09-02 15:34:5444.93456-118.0994732°51km/h14795m3.8m/s-42.7°C0%0hPa0V00:00:0000:00:0000:00:00
KE7DJD2026-09-02 15:34:3444.93249-118.1020650°60km/h14668m4.3m/s-42.2°C0%0hPa0V00:00:0000:00:0000:00:00
KE7DJD2026-09-02 15:34:1344.93054-118.1057151°69km/h14550m5.6m/s-43.1°C0%0hPa0V00:00:0000:00:0000:00:00
KE7DJD2026-09-02 15:33:5244.92845-118.1091651°60km/h14418m5.8m/s-42.9°C0%0hPa0V00:00:0000:00:0000:00:00
KE7DJD2026-09-02 15:33:3244.92603-118.1121443°57km/h14293m4.8m/s-43.2°C0%0hPa0V00:00:0000:00:0000:00:00
KE7DJD2026-09-02 15:33:1144.92379-118.1146240°58km/h14148m9.3m/s-43.8°C0%0hPa0V00:00:0000:00:0000:00:00
KE7DJD2026-09-02 15:32:5044.92113-118.1177242°69km/h14018m5.0m/s-43.5°C0%0hPa0V00:00:0000:00:0000:00:00
KE7DJD2026-09-02 15:32:2944.91847-118.1204538°75km/h13894m4.8m/s-42.9°C0%0hPa0V00:00:0000:00:0000:00:00
KE7DJD2026-09-02 15:32:0944.91579-118.1226734°57km/h13752m7.0m/s-41.8°C0%0hPa0V00:00:0000:00:0000:00:00
KE7DJD2026-09-02 15:31:4844.91353-118.1251440°44km/h13625m7.2m/s-41.2°C0%0hPa0V00:00:0000:00:0000:00:00
KE7DJD2026-09-02 15:31:2844.91151-118.1275940°55km/h13508m6.2m/s-41.6°C0%0hPa0V00:00:0000:00:0000:00:00
KE7DJD2026-09-02 15:31:0844.90999-118.1303255°46km/h13380m5.3m/s-41.9°C0%0hPa0V00:00:0000:00:0000:00:00
KE7DJD2026-09-02 15:30:4744.90848-118.1328145°47km/h13268m6.7m/s-41.8°C0%0hPa0V00:00:0000:00:0000:00:00
KE7DJD2026-09-02 15:30:2744.90669-118.1355756°44km/h13148m8.6m/s-42.0°C0%0hPa0V00:00:0000:00:0000:00:00
KE7DJD2026-09-02 15:30:0644.90531-118.1389353°60km/h13031m5.2m/s-41.8°C0%0hPa0V00:00:0000:00:0000:00:00
KE7DJD2026-09-02 15:29:4644.90344-118.1423264°55km/h12901m4.1m/s-41.4°C0%0hPa0V00:00:0000:00:0000:00:00
KE7DJD2026-09-02 15:29:2544.90160-118.1459755°57km/h12774m7.2m/s-41.1°C0%0hPa0V00:00:0000:00:0000:00:00
KE7DJD2026-09-02 15:29:0544.90002-118.1491358°57km/h12660m5.1m/s-41.3°C0%0hPa0V00:00:0000:00:0000:00:00
KE7DJD2026-09-02 15:28:4444.89837-118.1522159°62km/h12535m8.8m/s-41.8°C0%0hPa0V00:00:0000:00:0000:00:00
KE7DJD2026-09-02 15:28:2444.89683-118.1557860°60km/h12413m7.8m/s-42.7°C0%0hPa0V00:00:0000:00:0000:00:00
KE7DJD2026-09-02 15:27:4244.89312-118.1635139°69km/h12150m9.0m/s-42.4°C0%0hPa0V00:00:0000:00:0000:00:00
KE7DJD2026-09-02 15:27:2244.89054-118.1661135°60km/h12008m6.2m/s-42.0°C0%0hPa0V00:00:0000:00:0000:00:00
KE7DJD2026-09-02 15:27:0144.88843-118.1685341°49km/h11885m3.8m/s-41.5°C0%0hPa0V00:00:0000:00:0000:00:00
KE7DJD2026-09-02 15:26:4144.88679-118.1712152°69km/h11764m7.3m/s-42.7°C0%0hPa0V00:00:0000:00:0000:00:00
KE7DJD2026-09-02 15:26:2044.88539-118.1735173°71km/h11602m12.5m/s-42.1°C0%0hPa0V00:00:0000:00:0000:00:00
KE7DJD2026-09-02 15:26:0044.88408-118.1770151°84km/h11424m7.1m/s-41.2°C0%0hPa0V00:00:0000:00:0000:00:00
KE7DJD2026-09-02 15:25:1944.88094-118.1804723°29km/h11100m7.0m/s-42.1°C0%0hPa0V00:00:0000:00:0000:00:00
KE7DJD2026-09-02 15:24:5844.87965-118.1815830°26km/h10991m4.8m/s-42.7°C0%0hPa0V00:00:0000:00:0000:00:00
KE7DJD2026-09-02 15:24:3844.87861-118.18258348°20km/h10859m6.0m/s-43.1°C0%0hPa0V00:00:0000:00:0000:00:00
KE7DJD2026-09-02 15:24:1744.87779-118.1850942°68km/h10691m5.5m/s-43.0°C0%0hPa0V00:00:0000:00:0000:00:00
KE7DJD2026-09-02 15:23:5744.87688-118.1876668°35km/h10524m7.3m/s-42.2°C0%0hPa0V00:00:0000:00:0000:00:00
KE7DJD2026-09-02 15:23:3644.87601-118.1897263°40km/h10381m7.8m/s-41.9°C0%0hPa0V00:00:0000:00:0000:00:00
KE7DJD2026-09-02 15:23:1644.87561-118.1916353°38km/h10230m5.0m/s-41.8°C0%0hPa0V00:00:0000:00:0000:00:00
KE7DJD2026-09-02 15:22:5544.87500-118.1940078°11km/h10074m10.1m/s-41.0°C0%0hPa0V00:00:0000:00:0000:00:00
KE7DJD2026-09-02 15:22:3544.87406-118.1958544°47km/h9899m4.8m/s-40.2°C0%0hPa0V00:00:0000:00:0000:00:00
KE7DJD2026-09-02 15:22:1344.87307-118.1986740°64km/h9733m7.7m/s-39.0°C0%0hPa0V00:00:0000:00:0000:00:00
KE7DJD2026-09-02 15:21:5344.87172-118.2012230°68km/h9563m8.0m/s-38.5°C0%0hPa0V00:00:0000:00:0000:00:00
KE7DJD2026-09-02 15:21:3244.86956-118.2023934°73km/h9401m9.1m/s-37.9°C0%0hPa0V00:00:0000:00:0000:00:00
KE7DJD2026-09-02 15:21:1244.86682-118.2033311°46km/h9236m11.1m/s-36.9°C0%0hPa0V00:00:0000:00:0000:00:00
KE7DJD2026-09-02 15:20:5244.86325-118.2032968km/h9055m7.6m/s-35.7°C0%0hPa0V00:00:0000:00:0000:00:00
KE7DJD2026-09-02 15:20:3144.85963-118.2028677km/h8897m5.3m/s-34.4°C0%0hPa0V00:00:0000:00:0000:00:00
KE7DJD2026-09-02 15:20:1044.85611-118.20138343°99km/h8735m8.7m/s-33.5°C0%0hPa0V00:00:0000:00:0000:00:00
KE7DJD2026-09-02 15:19:5044.85242-118.19854327°66km/h8593m6.7m/s-33.2°C0%0hPa0V00:00:0000:00:0000:00:00
KE7DJD2026-09-02 15:19:2944.84888-118.19525312°88km/h8451m3.9m/s-31.9°C0%0hPa0V00:00:0000:00:0000:00:00
KE7DJD2026-09-02 15:19:0944.84579-118.19166310°89km/h8321m7.8m/s-30.7°C0%0hPa0V00:00:0000:00:0000:00:00
KE7DJD2026-09-02 15:18:4944.84223-118.18816326°91km/h8174m4.2m/s-29.5°C0%0hPa0V00:00:0000:00:0000:00:00
KE7DJD2026-09-02 15:18:2744.83901-118.18407317°55km/h8030m6.8m/s-28.1°C0%0hPa0V00:00:0000:00:0000:00:00


GPX KML Map

© wettersonde.net (DO2JMG) - 2026  -  -